createdAt,value
2023-01-31T00:00:19.595Z,1021.02
2023-01-31T00:01:19.731Z,1021.01
2023-01-31T00:02:19.693Z,1020.96
2023-01-31T00:03:19.831Z,1021.02
2023-01-31T00:04:19.994Z,1020.99
2023-01-31T00:05:19.900Z,1021.01
2023-01-31T00:06:19.741Z,1021.01
2023-01-31T00:07:19.789Z,1021.01
2023-01-31T00:08:19.801Z,1020.97
2023-01-31T00:09:19.826Z,1020.94
2023-01-31T00:10:19.890Z,1020.99
2023-01-31T00:11:20.133Z,1020.96
2023-01-31T00:12:19.905Z,1020.96
2023-01-31T00:13:19.931Z,1020.98
2023-01-31T00:14:19.953Z,1021.05
2023-01-31T00:15:20.396Z,1021.06
2023-01-31T00:16:20.001Z,1021.10
2023-01-31T00:17:20.032Z,1021.10
2023-01-31T00:19:20.442Z,1021.10
2023-01-31T00:20:20.187Z,1021.09
2023-01-31T00:21:20.446Z,1021.06
2023-01-31T00:22:20.165Z,1021.05
2023-01-31T00:23:20.184Z,1021.00
2023-01-31T00:24:20.215Z,1021.01
2023-01-31T00:25:20.621Z,1021.05
2023-01-31T00:26:20.678Z,1021.06
2023-01-31T00:27:20.295Z,1021.09
2023-01-31T00:28:20.317Z,1021.09
2023-01-31T00:29:20.348Z,1021.07
2023-01-31T00:30:20.423Z,1021.04
2023-01-31T00:31:20.508Z,1021.06
2023-01-31T00:32:20.467Z,1021.03
2023-01-31T00:33:20.752Z,1021.05
2023-01-31T00:34:20.479Z,1021.08
2023-01-31T00:35:20.931Z,1021.12
2023-01-31T00:36:20.526Z,1021.07
2023-01-31T00:37:20.555Z,1021.08
2023-01-31T00:38:20.577Z,1021.00
2023-01-31T00:39:20.729Z,1021.04
2023-01-31T00:40:20.934Z,1021.02
2023-01-31T00:41:20.769Z,1020.98
2023-01-31T00:42:20.720Z,1020.96
2023-01-31T00:43:20.829Z,1021.00
2023-01-31T00:44:20.739Z,1020.98
2023-01-31T00:45:21.086Z,1020.98
2023-01-31T00:46:21.026Z,1020.99
2023-01-31T00:47:21.133Z,1020.96
2023-01-31T00:48:20.836Z,1021.07
2023-01-31T00:49:20.860Z,1021.08
2023-01-31T00:50:20.943Z,1021.03
2023-01-31T00:51:20.950Z,1021.05
2023-01-31T00:52:21.020Z,1020.99
2023-01-31T00:53:20.980Z,1021.03
2023-01-31T00:54:21.296Z,1020.99
2023-01-31T00:55:21.445Z,1021.04
2023-01-31T00:56:21.042Z,1021.03
2023-01-31T00:57:21.172Z,1021.05
2023-01-31T00:58:21.099Z,1021.09
2023-01-31T00:59:21.125Z,1021.06
2023-01-31T01:00:21.148Z,1021.10
2023-01-31T01:01:21.480Z,1021.13
2023-01-31T01:03:21.260Z,1021.13
2023-01-31T01:04:21.254Z,1021.12
2023-01-31T01:05:21.633Z,1021.11
2023-01-31T01:06:21.306Z,1021.07
2023-01-31T01:07:21.354Z,1021.09
2023-01-31T01:08:21.755Z,1021.09
2023-01-31T01:09:21.383Z,1021.07
2023-01-31T01:10:21.412Z,1021.10
2023-01-31T01:11:21.437Z,1021.09
2023-01-31T01:12:21.461Z,1021.08
2023-01-31T01:13:21.494Z,1021.19
2023-01-31T01:14:21.519Z,1021.11
2023-01-31T01:15:22.307Z,1021.07
2023-01-31T01:16:21.692Z,1021.10
2023-01-31T01:18:21.624Z,1021.07
2023-01-31T01:19:21.641Z,1021.10
2023-01-31T01:20:21.671Z,1021.07
2023-01-31T01:21:21.700Z,1021.12
2023-01-31T01:22:21.977Z,1021.08
2023-01-31T01:23:21.772Z,1021.08
2023-01-31T01:24:21.776Z,1021.05
2023-01-31T01:25:22.138Z,1021.06
2023-01-31T01:26:21.861Z,1021.08
2023-01-31T01:27:21.850Z,1021.11
2023-01-31T01:28:21.875Z,1021.10
2023-01-31T01:29:22.205Z,1021.11
2023-01-31T01:30:21.933Z,1021.17
2023-01-31T01:31:22.111Z,1021.17
2023-01-31T01:32:22.107Z,1021.11
2023-01-31T01:33:22.004Z,1021.12
2023-01-31T01:34:22.043Z,1021.13
2023-01-31T01:35:22.283Z,1021.12
2023-01-31T01:37:22.509Z,1021.14
2023-01-31T01:38:22.248Z,1021.11
2023-01-31T01:39:22.307Z,1021.15
2023-01-31T01:40:22.188Z,1021.17
2023-01-31T01:41:22.216Z,1021.17
2023-01-31T01:42:22.244Z,1021.16
2023-01-31T01:43:22.264Z,1021.14
2023-01-31T01:44:22.587Z,1021.09
2023-01-31T01:45:22.821Z,1021.08
2023-01-31T01:46:22.342Z,1021.08
2023-01-31T01:47:22.363Z,1021.02
2023-01-31T01:48:22.392Z,1021.02
2023-01-31T01:49:22.423Z,1021.00
2023-01-31T01:50:22.444Z,1020.98
2023-01-31T01:51:22.772Z,1020.99
2023-01-31T01:52:22.505Z,1020.97
2023-01-31T01:53:22.540Z,1020.98
2023-01-31T01:54:22.557Z,1020.96
2023-01-31T01:55:22.818Z,1020.94
2023-01-31T01:56:22.612Z,1020.88
2023-01-31T01:57:22.625Z,1020.91
2023-01-31T01:58:22.999Z,1020.91
2023-01-31T01:59:22.684Z,1020.92
2023-01-31T02:00:22.721Z,1020.97
2023-01-31T02:01:23.116Z,1020.93
2023-01-31T02:02:22.844Z,1020.92
2023-01-31T02:03:22.792Z,1020.91
2023-01-31T02:04:22.812Z,1020.88
2023-01-31T02:05:23.130Z,1020.91
2023-01-31T02:07:22.892Z,1020.89
2023-01-31T02:08:22.905Z,1020.89
2023-01-31T02:09:22.940Z,1020.91
2023-01-31T02:10:22.956Z,1020.89
2023-01-31T02:11:23.030Z,1020.89
2023-01-31T02:12:23.260Z,1020.90
2023-01-31T02:13:23.052Z,1020.97
2023-01-31T02:14:23.067Z,1020.97
2023-01-31T02:15:23.087Z,1020.98
2023-01-31T02:16:23.135Z,1021.01
2023-01-31T02:17:23.147Z,1020.99
2023-01-31T02:18:23.503Z,1021.01
2023-01-31T02:19:23.197Z,1021.04
2023-01-31T02:20:23.227Z,1021.00
2023-01-31T02:21:23.248Z,1020.99
2023-01-31T02:22:23.899Z,1020.99
2023-01-31T02:23:23.767Z,1020.94
2023-01-31T02:24:23.732Z,1020.96
2023-01-31T02:25:23.879Z,1020.94
2023-01-31T02:26:23.559Z,1021.00
2023-01-31T02:27:23.430Z,1021.00
2023-01-31T02:28:23.436Z,1021.02
2023-01-31T02:29:23.455Z,1020.94
2023-01-31T02:30:24.094Z,1020.95
2023-01-31T02:31:24.034Z,1021.00
2023-01-31T02:32:23.838Z,1020.95
2023-01-31T02:33:23.709Z,1020.95
2023-01-31T02:34:23.768Z,1020.95
2023-01-31T02:35:23.949Z,1020.98
2023-01-31T02:36:23.633Z,1020.97
2023-01-31T02:37:24.342Z,1021.00
2023-01-31T02:38:24.291Z,1021.01
2023-01-31T02:39:24.293Z,1021.01
2023-01-31T02:40:24.162Z,1020.95
2023-01-31T02:41:23.895Z,1020.97
2023-01-31T02:42:23.855Z,1021.03
2023-01-31T02:43:23.841Z,1021.04
2023-01-31T02:44:24.142Z,1021.04
2023-01-31T02:45:24.350Z,1021.06
2023-01-31T02:46:23.903Z,1021.04
2023-01-31T02:48:24.248Z,1021.01
2023-01-31T02:49:24.154Z,1021.00
2023-01-31T02:50:24.145Z,1021.06
2023-01-31T02:51:24.318Z,1021.06
2023-01-31T02:52:24.055Z,1021.05
2023-01-31T02:53:24.081Z,1021.07
2023-01-31T02:54:24.103Z,1021.05
2023-01-31T02:55:24.285Z,1021.04
2023-01-31T02:56:24.151Z,1021.03
2023-01-31T02:57:24.176Z,1021.06
2023-01-31T02:58:24.502Z,1021.09
2023-01-31T02:59:24.247Z,1021.06
2023-01-31T03:00:24.267Z,1021.09
2023-01-31T03:01:24.382Z,1021.04
2023-01-31T03:02:24.397Z,1021.05
2023-01-31T03:03:24.341Z,1021.06
2023-01-31T03:04:24.363Z,1021.00
2023-01-31T03:05:25.009Z,1020.96
2023-01-31T03:06:24.452Z,1020.97
2023-01-31T03:07:24.435Z,1020.97
2023-01-31T03:08:24.466Z,1020.90
2023-01-31T03:09:24.488Z,1020.91
2023-01-31T03:10:24.515Z,1020.88
2023-01-31T03:11:24.537Z,1020.87
2023-01-31T03:12:24.889Z,1020.83
2023-01-31T03:13:24.590Z,1020.80
2023-01-31T03:14:24.624Z,1020.83
2023-01-31T03:15:25.076Z,1020.80
2023-01-31T03:16:24.698Z,1020.80
2023-01-31T03:17:24.698Z,1020.76
2023-01-31T03:18:24.726Z,1020.80
2023-01-31T03:20:24.786Z,1020.83
2023-01-31T03:21:24.803Z,1020.79
2023-01-31T03:22:24.830Z,1020.78
2023-01-31T03:24:24.878Z,1020.75
2023-01-31T03:25:25.177Z,1020.73
2023-01-31T03:26:25.275Z,1020.71
2023-01-31T03:28:24.987Z,1020.64
2023-01-31T03:29:25.012Z,1020.61
2023-01-31T03:30:25.035Z,1020.65
2023-01-31T03:31:25.182Z,1020.66
2023-01-31T03:32:25.095Z,1020.66
2023-01-31T03:33:25.360Z,1020.75
2023-01-31T03:34:25.135Z,1020.70
2023-01-31T03:35:25.172Z,1020.74
2023-01-31T03:36:25.193Z,1020.76
2023-01-31T03:37:25.216Z,1020.76
2023-01-31T03:38:25.254Z,1020.76
2023-01-31T03:40:25.562Z,1020.77
2023-01-31T03:41:25.322Z,1020.79
2023-01-31T03:42:25.364Z,1020.75
2023-01-31T03:43:25.393Z,1020.77
2023-01-31T03:44:25.398Z,1020.71
2023-01-31T03:45:25.427Z,1020.70
2023-01-31T03:46:25.580Z,1020.71
2023-01-31T03:47:25.799Z,1020.69
2023-01-31T03:48:25.512Z,1020.71
2023-01-31T03:49:25.547Z,1020.64
2023-01-31T03:53:25.647Z,1020.68
2023-01-31T03:54:25.912Z,1020.73
2023-01-31T03:55:25.696Z,1020.73
2023-01-31T03:56:25.719Z,1020.75
2023-01-31T03:57:25.765Z,1020.74
2023-01-31T03:58:25.766Z,1020.73
2023-01-31T03:59:25.799Z,1020.73
2023-01-31T04:00:25.822Z,1020.72
2023-01-31T04:02:25.929Z,1020.70
2023-01-31T04:03:25.918Z,1020.71
2023-01-31T04:04:25.936Z,1020.71
2023-01-31T04:05:25.961Z,1020.67
2023-01-31T04:06:25.981Z,1020.68
2023-01-31T04:07:26.003Z,1020.67
2023-01-31T04:08:26.278Z,1020.64
2023-01-31T04:09:26.057Z,1020.66
2023-01-31T04:10:26.088Z,1020.67
2023-01-31T04:11:26.101Z,1020.62
2023-01-31T04:12:26.129Z,1020.63
2023-01-31T04:13:26.157Z,1020.60
2023-01-31T04:14:26.430Z,1020.54
2023-01-31T04:15:26.216Z,1020.56
2023-01-31T04:16:26.294Z,1020.52
2023-01-31T04:17:26.359Z,1020.55
2023-01-31T04:18:26.290Z,1020.56
2023-01-31T04:19:26.345Z,1020.60
2023-01-31T04:20:26.645Z,1020.58
2023-01-31T04:21:26.468Z,1020.56
2023-01-31T04:22:26.390Z,1020.51
2023-01-31T04:23:26.420Z,1020.50
2023-01-31T04:24:26.443Z,1020.47
2023-01-31T04:25:26.474Z,1020.48
2023-01-31T04:26:26.944Z,1020.45
2023-01-31T04:28:26.570Z,1020.47
2023-01-31T04:29:26.576Z,1020.49
2023-01-31T04:30:26.605Z,1020.47
2023-01-31T04:31:26.693Z,1020.45
2023-01-31T04:32:28.251Z,1020.38
2023-01-31T04:33:27.043Z,1020.41
2023-01-31T04:34:26.705Z,1020.40
2023-01-31T04:35:26.857Z,1020.36
2023-01-31T04:36:26.775Z,1020.37
2023-01-31T04:37:26.783Z,1020.39
2023-01-31T04:38:26.814Z,1020.38
2023-01-31T04:39:26.845Z,1020.34
2023-01-31T04:40:27.119Z,1020.33
2023-01-31T04:41:26.895Z,1020.29
2023-01-31T04:42:26.915Z,1020.30
2023-01-31T04:43:26.963Z,1020.35
2023-01-31T04:44:26.999Z,1020.31
2023-01-31T04:45:26.991Z,1020.31
2023-01-31T04:46:27.172Z,1020.29
2023-01-31T04:47:27.301Z,1020.29
2023-01-31T04:48:28.972Z,1020.28
2023-01-31T04:49:27.131Z,1020.27
2023-01-31T04:50:27.221Z,1020.28
2023-01-31T04:51:27.181Z,1020.30
2023-01-31T04:53:27.199Z,1020.29
2023-01-31T04:54:27.482Z,1020.34
2023-01-31T04:55:27.249Z,1020.31
2023-01-31T04:56:27.283Z,1020.30
2023-01-31T04:57:27.311Z,1020.34
2023-01-31T04:58:27.332Z,1020.30
2023-01-31T04:59:27.356Z,1020.30
2023-01-31T05:00:27.383Z,1020.32
2023-01-31T05:01:27.713Z,1020.33
2023-01-31T05:02:27.462Z,1020.34
2023-01-31T05:03:27.474Z,1020.34
2023-01-31T05:04:27.488Z,1020.35
2023-01-31T05:05:27.519Z,1020.34
2023-01-31T05:06:27.547Z,1020.30
2023-01-31T05:07:27.817Z,1020.32
2023-01-31T05:08:27.858Z,1020.27
2023-01-31T05:09:27.624Z,1020.23
2023-01-31T05:10:27.648Z,1020.22
2023-01-31T05:11:27.674Z,1020.26
2023-01-31T05:12:27.698Z,1020.24
2023-01-31T05:13:27.727Z,1020.26
2023-01-31T05:14:27.752Z,1020.19
2023-01-31T05:15:28.031Z,1020.13
2023-01-31T05:16:27.876Z,1020.12
2023-01-31T05:17:27.835Z,1020.17
2023-01-31T05:18:27.855Z,1020.13
2023-01-31T05:19:27.885Z,1020.13
2023-01-31T05:20:27.917Z,1020.13
2023-01-31T05:21:27.937Z,1020.13
2023-01-31T05:22:28.220Z,1020.08
2023-01-31T05:23:28.012Z,1020.10
2023-01-31T05:24:28.016Z,1020.03
2023-01-31T05:25:28.043Z,1020.01
2023-01-31T05:26:28.117Z,1020.00
2023-01-31T05:27:28.100Z,1019.98
2023-01-31T05:28:28.131Z,1020.01
2023-01-31T05:29:28.450Z,1020.02
2023-01-31T05:30:28.177Z,1020.04
2023-01-31T05:31:28.227Z,1020.02
2023-01-31T05:33:29.364Z,1020.02
2023-01-31T05:34:28.271Z,1020.04
2023-01-31T05:35:28.323Z,1020.07
2023-01-31T05:36:28.649Z,1020.03
2023-01-31T05:37:28.357Z,1020.06
2023-01-31T05:38:28.389Z,1020.06
2023-01-31T05:39:28.436Z,1020.11
2023-01-31T05:40:28.550Z,1020.12
2023-01-31T05:42:28.639Z,1020.10
2023-01-31T05:43:28.816Z,1020.09
2023-01-31T05:44:28.572Z,1020.13
2023-01-31T05:46:28.593Z,1020.11
2023-01-31T05:47:28.617Z,1020.16
2023-01-31T05:48:28.670Z,1020.16
2023-01-31T05:49:28.668Z,1020.11
2023-01-31T05:50:28.693Z,1020.16
2023-01-31T05:51:28.720Z,1020.12
2023-01-31T05:52:28.750Z,1020.12
2023-01-31T05:53:28.791Z,1020.12
2023-01-31T05:54:28.795Z,1020.11
2023-01-31T05:55:28.881Z,1020.05
2023-01-31T05:56:29.457Z,1020.01
2023-01-31T05:57:28.894Z,1020.03
2023-01-31T05:58:28.960Z,1020.03
2023-01-31T05:59:28.939Z,1020.01
2023-01-31T06:00:28.974Z,1019.95
2023-01-31T06:01:28.986Z,1019.95
2023-01-31T06:02:29.291Z,1019.97
2023-01-31T06:03:29.058Z,1019.93
2023-01-31T06:04:29.107Z,1019.92
2023-01-31T06:05:29.086Z,1019.91
2023-01-31T06:06:29.155Z,1019.91
2023-01-31T06:07:29.148Z,1019.91
2023-01-31T06:08:29.471Z,1019.98
2023-01-31T06:09:29.214Z,1019.93
2023-01-31T06:10:29.342Z,1019.94
2023-01-31T06:11:29.279Z,1019.92
2023-01-31T06:12:29.275Z,1019.90
2023-01-31T06:13:29.319Z,1019.88
2023-01-31T06:14:29.627Z,1019.86
2023-01-31T06:15:29.354Z,1019.83
2023-01-31T06:16:29.417Z,1019.85
2023-01-31T06:17:30.572Z,1019.75
2023-01-31T06:18:29.430Z,1019.82
2023-01-31T06:19:29.459Z,1019.76
2023-01-31T06:20:29.502Z,1019.78
2023-01-31T06:21:29.763Z,1019.79
2023-01-31T06:22:29.536Z,1019.77
2023-01-31T06:23:29.568Z,1019.80
2023-01-31T06:24:29.662Z,1019.79
2023-01-31T06:25:29.634Z,1019.78
2023-01-31T06:26:29.706Z,1019.76
2023-01-31T06:28:29.964Z,1019.75
2023-01-31T06:29:29.741Z,1019.74
2023-01-31T06:30:29.885Z,1019.75
2023-01-31T06:31:30.011Z,1019.72
2023-01-31T06:32:29.806Z,1019.70
2023-01-31T06:33:43.594Z,1019.75
2023-01-31T06:34:29.862Z,1019.75
2023-01-31T06:35:30.522Z,1019.71
2023-01-31T06:36:30.372Z,1019.68
2023-01-31T06:37:30.598Z,1019.70
2023-01-31T06:38:30.132Z,1019.68
2023-01-31T06:39:30.589Z,1019.69
2023-01-31T06:40:30.578Z,1019.65
2023-01-31T06:41:30.524Z,1019.79
2023-01-31T06:42:30.588Z,1019.70
2023-01-31T06:43:30.462Z,1019.62
2023-01-31T06:44:30.444Z,1019.62
2023-01-31T06:45:30.611Z,1019.67
2023-01-31T06:46:30.466Z,1019.67
2023-01-31T06:47:30.730Z,1019.72
2023-01-31T06:48:30.520Z,1019.66
2023-01-31T06:49:30.487Z,1019.73
2023-01-31T06:50:30.384Z,1019.70
2023-01-31T06:51:30.478Z,1019.75
2023-01-31T06:52:30.653Z,1019.78
2023-01-31T06:53:30.493Z,1019.78
2023-01-31T06:54:30.559Z,1019.84
2023-01-31T06:55:30.724Z,1019.79
2023-01-31T06:56:30.551Z,1019.84
2023-01-31T06:57:30.474Z,1019.87
2023-01-31T06:58:30.484Z,1019.92
2023-01-31T06:59:30.521Z,1019.87
2023-01-31T07:00:30.719Z,1019.86
2023-01-31T07:01:30.600Z,1019.85
2023-01-31T07:02:31.349Z,1019.90
2023-01-31T07:03:30.622Z,1019.87
2023-01-31T07:04:30.706Z,1019.86
2023-01-31T07:05:30.718Z,1019.86
2023-01-31T07:06:30.703Z,1019.83
2023-01-31T07:07:31.224Z,1019.85
2023-01-31T07:08:33.196Z,1019.83
2023-01-31T07:09:31.079Z,1019.84
2023-01-31T07:10:31.273Z,1019.84
2023-01-31T07:11:31.469Z,1019.89
2023-01-31T07:12:31.462Z,1019.89
2023-01-31T07:13:31.344Z,1019.94
2023-01-31T07:14:31.463Z,1019.91
2023-01-31T07:15:31.333Z,1019.88
2023-01-31T07:16:31.171Z,1019.86
2023-01-31T07:17:31.222Z,1019.82
2023-01-31T07:18:31.387Z,1019.85
2023-01-31T07:19:31.254Z,1019.84
2023-01-31T07:20:31.520Z,1019.86
2023-01-31T07:21:31.264Z,1019.90
2023-01-31T07:22:31.373Z,1019.96
2023-01-31T07:23:31.198Z,1020.03
2023-01-31T07:24:31.207Z,1020.05
2023-01-31T07:25:31.262Z,1020.04
2023-01-31T07:26:31.321Z,1020.08
2023-01-31T07:27:31.291Z,1020.03
2023-01-31T07:28:31.483Z,1020.04
2023-01-31T07:29:31.368Z,1019.98
2023-01-31T07:30:32.203Z,1019.95
2023-01-31T07:31:31.413Z,1019.94
2023-01-31T07:32:31.407Z,1019.94
2023-01-31T07:34:32.264Z,1019.94
2023-01-31T07:35:31.459Z,1020.01
2023-01-31T07:36:31.489Z,1019.97
2023-01-31T07:37:31.513Z,1019.90
2023-01-31T07:38:32.335Z,1019.83
2023-01-31T07:39:32.287Z,1019.84
2023-01-31T07:40:32.083Z,1019.90
2023-01-31T07:41:32.130Z,1019.84
2023-01-31T07:42:32.213Z,1019.80
2023-01-31T07:43:32.074Z,1019.77
2023-01-31T07:44:32.145Z,1019.70
2023-01-31T07:45:32.020Z,1019.72
2023-01-31T07:46:32.252Z,1019.63
2023-01-31T07:47:31.970Z,1019.66
2023-01-31T07:48:31.922Z,1019.57
2023-01-31T07:49:32.060Z,1019.58
2023-01-31T07:50:32.275Z,1019.64
2023-01-31T07:51:32.081Z,1019.69
2023-01-31T07:52:32.148Z,1019.62
2023-01-31T07:53:32.026Z,1019.58
2023-01-31T07:54:32.104Z,1019.59
2023-01-31T07:56:32.283Z,1019.48
2023-01-31T07:57:32.210Z,1019.54
2023-01-31T07:58:33.095Z,1019.57
2023-01-31T07:59:32.389Z,1019.60
2023-01-31T08:00:32.108Z,1019.57
2023-01-31T08:02:32.165Z,1019.65
2023-01-31T08:04:32.285Z,1019.59
2023-01-31T08:06:32.284Z,1019.58
2023-01-31T08:07:32.346Z,1019.57
2023-01-31T08:08:32.763Z,1019.60
2023-01-31T08:09:32.352Z,1019.58
2023-01-31T08:10:32.949Z,1019.70
2023-01-31T08:11:33.012Z,1019.77
2023-01-31T08:12:33.075Z,1019.77
2023-01-31T08:13:32.864Z,1019.77
2023-01-31T08:14:32.686Z,1019.72
2023-01-31T08:15:32.967Z,1019.73
2023-01-31T08:16:32.872Z,1019.67
2023-01-31T08:17:32.954Z,1019.75
2023-01-31T08:18:32.892Z,1019.71
2023-01-31T08:19:32.848Z,1019.71
2023-01-31T08:20:32.793Z,1019.67
2023-01-31T08:21:33.037Z,1019.60
2023-01-31T08:22:32.854Z,1019.58
2023-01-31T08:23:33.003Z,1019.54
2023-01-31T08:24:32.999Z,1019.54
2023-01-31T08:25:32.969Z,1019.48
2023-01-31T08:26:32.954Z,1019.48
2023-01-31T08:27:32.879Z,1019.44
2023-01-31T08:28:32.851Z,1019.38
2023-01-31T08:29:33.164Z,1019.45
2023-01-31T08:30:33.007Z,1019.51
2023-01-31T08:31:33.827Z,1019.46
2023-01-31T08:32:33.045Z,1019.43
2023-01-31T08:33:32.973Z,1019.45
2023-01-31T08:34:32.996Z,1019.49
2023-01-31T08:35:33.030Z,1019.51
2023-01-31T08:36:33.462Z,1019.53
2023-01-31T08:37:33.100Z,1019.46
2023-01-31T08:38:33.496Z,1019.42
2023-01-31T08:39:33.549Z,1019.37
2023-01-31T08:40:33.174Z,1019.38
2023-01-31T08:41:33.182Z,1019.33
2023-01-31T08:42:33.214Z,1019.41
2023-01-31T08:43:42.605Z,1019.28
2023-01-31T08:44:34.172Z,1019.30
2023-01-31T08:45:33.541Z,1019.28
2023-01-31T08:46:33.696Z,1019.31
2023-01-31T08:47:33.355Z,1019.33
2023-01-31T08:49:33.406Z,1019.29
2023-01-31T08:50:33.447Z,1019.32
2023-01-31T08:51:33.446Z,1019.33
2023-01-31T08:52:33.789Z,1019.33
2023-01-31T08:53:33.549Z,1019.38
2023-01-31T08:54:33.551Z,1019.38
2023-01-31T08:55:33.548Z,1019.41
2023-01-31T08:56:33.946Z,1019.39
2023-01-31T08:57:33.680Z,1019.41
2023-01-31T08:58:33.635Z,1019.33
2023-01-31T08:59:33.966Z,1019.27
2023-01-31T09:00:33.751Z,1019.25
2023-01-31T09:01:33.809Z,1019.28
2023-01-31T09:02:33.786Z,1019.28
2023-01-31T09:03:33.807Z,1019.31
2023-01-31T09:04:33.784Z,1019.26
2023-01-31T09:05:33.828Z,1019.30
2023-01-31T09:06:34.162Z,1019.27
2023-01-31T09:07:33.860Z,1019.25
2023-01-31T09:08:34.029Z,1019.24
2023-01-31T09:09:33.943Z,1019.22
2023-01-31T09:10:33.946Z,1019.20
2023-01-31T09:11:34.489Z,1019.26
2023-01-31T09:12:34.487Z,1019.27
2023-01-31T09:14:34.361Z,1019.30
2023-01-31T09:15:34.087Z,1019.28
2023-01-31T09:16:34.189Z,1019.29
2023-01-31T09:17:34.128Z,1019.23
2023-01-31T09:18:34.168Z,1019.23
2023-01-31T09:19:34.180Z,1019.22
2023-01-31T09:20:34.206Z,1019.21
2023-01-31T09:21:34.479Z,1019.18
2023-01-31T09:22:34.647Z,1019.22
2023-01-31T09:23:34.297Z,1019.12
2023-01-31T09:24:34.332Z,1019.15
2023-01-31T09:25:45.630Z,1019.14
2023-01-31T09:26:34.532Z,1019.12
2023-01-31T09:27:34.402Z,1019.08
2023-01-31T09:28:34.678Z,1019.08
2023-01-31T09:29:34.538Z,1019.05
2023-01-31T09:30:34.634Z,1019.06
2023-01-31T09:31:34.630Z,1019.09
2023-01-31T09:32:34.519Z,1019.07
2023-01-31T09:33:34.538Z,1019.06
2023-01-31T09:34:34.597Z,1019.08
2023-01-31T09:35:34.899Z,1019.05
2023-01-31T09:36:34.630Z,1019.05
2023-01-31T09:37:34.643Z,1019.08
2023-01-31T09:39:34.704Z,1018.95
2023-01-31T09:40:34.810Z,1019.05
2023-01-31T09:41:34.767Z,1019.04
2023-01-31T09:42:35.076Z,1018.98
2023-01-31T09:43:34.859Z,1019.00
2023-01-31T09:44:34.828Z,1018.98
2023-01-31T09:45:34.858Z,1019.01
2023-01-31T09:46:34.909Z,1018.97
2023-01-31T09:47:34.916Z,1018.91
2023-01-31T09:48:34.938Z,1018.88
2023-01-31T09:50:35.295Z,1018.98
2023-01-31T09:51:35.028Z,1018.90
2023-01-31T09:52:35.043Z,1018.92
2023-01-31T09:55:35.123Z,1018.83
2023-01-31T09:56:35.166Z,1018.85
2023-01-31T09:57:35.927Z,1018.85
2023-01-31T09:58:35.194Z,1018.83
2023-01-31T10:00:35.248Z,1018.85
2023-01-31T10:03:35.744Z,1018.77
2023-01-31T10:04:35.352Z,1018.86
2023-01-31T10:05:35.469Z,1018.82
2023-01-31T10:06:35.403Z,1018.84
2023-01-31T10:07:35.431Z,1018.79
2023-01-31T10:08:35.457Z,1018.79
2023-01-31T10:09:35.968Z,1018.79
2023-01-31T10:10:35.530Z,1018.79
2023-01-31T10:11:36.653Z,1018.81
2023-01-31T10:12:35.588Z,1018.83
2023-01-31T10:13:35.586Z,1018.77
2023-01-31T10:15:36.417Z,1018.66
2023-01-31T10:16:35.673Z,1018.67
2023-01-31T10:17:35.761Z,1018.66
2023-01-31T10:18:36.250Z,1018.60
2023-01-31T10:19:36.167Z,1018.61
2023-01-31T10:20:35.776Z,1018.60
2023-01-31T10:21:36.048Z,1018.65
2023-01-31T10:22:35.828Z,1018.65
2023-01-31T10:23:35.852Z,1018.67
2023-01-31T10:24:35.887Z,1018.67
2023-01-31T10:25:35.939Z,1018.63
2023-01-31T10:26:36.426Z,1018.62
2023-01-31T10:27:36.460Z,1018.64
2023-01-31T10:28:36.577Z,1018.49
2023-01-31T10:29:36.352Z,1018.45
2023-01-31T10:30:36.254Z,1018.43
2023-01-31T10:31:36.313Z,1018.47
2023-01-31T10:32:36.142Z,1018.42
2023-01-31T10:33:36.116Z,1018.37
2023-01-31T10:34:36.164Z,1018.30
2023-01-31T10:35:36.469Z,1018.29
2023-01-31T10:36:36.258Z,1018.27
2023-01-31T10:37:36.381Z,1018.25
2023-01-31T10:38:36.246Z,1018.28
2023-01-31T10:39:36.283Z,1018.35
2023-01-31T10:40:36.530Z,1018.37
2023-01-31T10:41:36.318Z,1018.45
2023-01-31T10:42:36.613Z,1018.38
2023-01-31T10:43:36.372Z,1018.35
2023-01-31T10:44:36.455Z,1018.33
2023-01-31T10:45:36.458Z,1018.28
2023-01-31T10:46:36.461Z,1018.22
2023-01-31T10:47:36.488Z,1018.20
2023-01-31T10:48:36.528Z,1018.19
2023-01-31T10:49:36.528Z,1018.20
2023-01-31T10:50:36.565Z,1018.15
2023-01-31T10:51:36.585Z,1018.14
2023-01-31T10:52:36.605Z,1018.09
2023-01-31T10:53:36.643Z,1018.12
2023-01-31T10:54:36.666Z,1018.05
2023-01-31T10:55:36.690Z,1018.00
2023-01-31T10:56:36.730Z,1017.89
2023-01-31T10:57:36.759Z,1017.88
2023-01-31T10:58:36.877Z,1018.01
2023-01-31T10:59:36.808Z,1017.91
2023-01-31T11:00:36.891Z,1018.03
2023-01-31T11:01:37.159Z,1018.02
2023-01-31T11:02:36.938Z,1018.09
2023-01-31T11:03:36.909Z,1017.96
2023-01-31T11:04:36.939Z,1017.93
2023-01-31T11:05:36.951Z,1017.89
2023-01-31T11:06:36.978Z,1017.94
2023-01-31T11:07:37.005Z,1017.93
2023-01-31T11:08:37.298Z,1017.96
2023-01-31T11:10:37.085Z,1017.96
2023-01-31T11:11:37.113Z,1017.92
2023-01-31T11:12:37.134Z,1017.92
2023-01-31T11:13:37.172Z,1017.88
2023-01-31T11:14:37.198Z,1017.82
2023-01-31T11:15:37.216Z,1017.81
2023-01-31T11:16:37.293Z,1017.79
2023-01-31T11:17:37.274Z,1017.75
2023-01-31T11:18:37.293Z,1017.63
2023-01-31T11:19:37.319Z,1017.65
2023-01-31T11:20:37.662Z,1017.71
2023-01-31T11:21:37.399Z,1017.70
2023-01-31T11:22:37.399Z,1017.71
2023-01-31T11:23:37.447Z,1017.74
2023-01-31T11:24:37.462Z,1017.68
2023-01-31T11:25:37.579Z,1017.74
2023-01-31T11:26:37.532Z,1017.61
2023-01-31T11:27:37.525Z,1017.70
2023-01-31T11:28:37.558Z,1017.66
2023-01-31T11:29:37.579Z,1017.59
2023-01-31T11:30:37.618Z,1017.65
2023-01-31T11:31:37.654Z,1017.66
2023-01-31T11:32:37.939Z,1017.64
2023-01-31T11:33:37.691Z,1017.65
2023-01-31T11:34:37.721Z,1017.66
2023-01-31T11:35:37.737Z,1017.60
2023-01-31T11:36:37.763Z,1017.60
2023-01-31T11:37:37.796Z,1017.59
2023-01-31T11:38:37.820Z,1017.61
2023-01-31T11:39:37.915Z,1017.61
2023-01-31T11:40:37.973Z,1017.59
2023-01-31T11:41:37.909Z,1017.54
2023-01-31T11:42:38.086Z,1017.52
2023-01-31T11:43:37.964Z,1017.56
2023-01-31T11:44:37.979Z,1017.58
2023-01-31T11:45:38.015Z,1017.53
2023-01-31T11:46:38.060Z,1017.51
2023-01-31T11:47:38.051Z,1017.45
2023-01-31T11:48:38.102Z,1017.39
2023-01-31T11:49:38.112Z,1017.39
2023-01-31T11:50:38.147Z,1017.38
2023-01-31T11:51:38.469Z,1017.32
2023-01-31T11:52:38.188Z,1017.32
2023-01-31T11:53:38.211Z,1017.33
2023-01-31T11:54:38.275Z,1017.41
2023-01-31T11:55:38.269Z,1017.45
2023-01-31T11:56:38.302Z,1017.43
2023-01-31T11:57:38.358Z,1017.40
2023-01-31T11:59:38.370Z,1017.25
2023-01-31T12:00:38.396Z,1017.20
2023-01-31T12:01:38.428Z,1017.15
2023-01-31T12:02:38.511Z,1017.20
2023-01-31T12:03:48.662Z,1017.19
2023-01-31T12:04:38.513Z,1017.24
2023-01-31T12:05:38.628Z,1017.40
2023-01-31T12:06:38.550Z,1017.29
2023-01-31T12:07:38.578Z,1017.37
2023-01-31T12:08:38.617Z,1017.28
2023-01-31T12:09:38.951Z,1017.26
2023-01-31T12:10:38.655Z,1017.17
2023-01-31T12:11:38.681Z,1017.10
2023-01-31T12:12:39.986Z,1017.10
2023-01-31T12:13:38.733Z,1017.04
2023-01-31T12:14:38.754Z,1017.11
2023-01-31T12:15:38.793Z,1017.10
2023-01-31T12:16:38.878Z,1017.15
2023-01-31T12:17:38.861Z,1017.09
2023-01-31T12:18:38.867Z,1017.15
2023-01-31T12:19:38.886Z,1017.05
2023-01-31T12:20:38.940Z,1017.05
2023-01-31T12:21:38.953Z,1017.10
2023-01-31T12:23:39.003Z,1017.05
2023-01-31T12:24:39.018Z,1017.01
2023-01-31T12:25:39.049Z,1017.04
2023-01-31T12:26:39.138Z,1017.02
2023-01-31T12:27:39.097Z,1017.04
2023-01-31T12:28:39.124Z,1017.01
2023-01-31T12:29:39.157Z,1016.96
2023-01-31T12:30:39.288Z,1017.02
2023-01-31T12:31:39.315Z,1016.98
2023-01-31T12:32:39.252Z,1016.95
2023-01-31T12:33:39.266Z,1016.95
2023-01-31T12:34:50.455Z,1017.07
2023-01-31T12:35:39.303Z,1017.07
2023-01-31T12:36:39.361Z,1017.02
2023-01-31T12:37:39.360Z,1017.03
2023-01-31T12:38:39.385Z,1017.08
2023-01-31T12:39:39.425Z,1017.12
2023-01-31T12:40:39.436Z,1017.13
2023-01-31T12:41:39.605Z,1017.21
2023-01-31T12:42:39.491Z,1017.09
2023-01-31T12:43:39.524Z,1017.00